sensor_id;sensor_type;location;lat;lon;timestamp;temperature;humidity
2495;DHT22;1258;48.336;14.322;2024-01-30T00:01:04;-2.70;99.90
2495;DHT22;1258;48.336;14.322;2024-01-30T00:03:31;-2.70;99.90
2495;DHT22;1258;48.336;14.322;2024-01-30T00:05:57;-2.80;99.90
2495;DHT22;1258;48.336;14.322;2024-01-30T00:08:24;-2.80;99.90
2495;DHT22;1258;48.336;14.322;2024-01-30T00:10:52;-2.90;99.90
2495;DHT22;1258;48.336;14.322;2024-01-30T00:13:19;-2.90;99.90
2495;DHT22;1258;48.336;14.322;2024-01-30T00:15:46;-2.90;99.90
2495;DHT22;1258;48.336;14.322;2024-01-30T00:18:14;-2.80;99.90
2495;DHT22;1258;48.336;14.322;2024-01-30T00:20:41;-2.80;99.90
2495;DHT22;1258;48.336;14.322;2024-01-30T00:23:08;-2.80;99.90
2495;DHT22;1258;48.336;14.322;2024-01-30T00:25:35;-2.80;99.90
2495;DHT22;1258;48.336;14.322;2024-01-30T00:28:03;-2.90;99.90
2495;DHT22;1258;48.336;14.322;2024-01-30T00:30:30;-2.90;99.90
2495;DHT22;1258;48.336;14.322;2024-01-30T00:32:57;-2.90;99.90
2495;DHT22;1258;48.336;14.322;2024-01-30T00:35:24;-2.90;99.90
2495;DHT22;1258;48.336;14.322;2024-01-30T00:37:51;-2.90;99.90
2495;DHT22;1258;48.336;14.322;2024-01-30T00:40:18;-3.00;99.90
2495;DHT22;1258;48.336;14.322;2024-01-30T00:42:46;-3.00;99.90
2495;DHT22;1258;48.336;14.322;2024-01-30T00:45:14;-3.00;99.90
2495;DHT22;1258;48.336;14.322;2024-01-30T00:47:42;-3.00;99.90
2495;DHT22;1258;48.336;14.322;2024-01-30T00:50:09;-3.10;99.90
2495;DHT22;1258;48.336;14.322;2024-01-30T00:52:36;-3.00;99.90
2495;DHT22;1258;48.336;14.322;2024-01-30T00:55:05;-3.10;99.90
2495;DHT22;1258;48.336;14.322;2024-01-30T00:57:32;-3.10;99.90
2495;DHT22;1258;48.336;14.322;2024-01-30T00:59:59;-3.20;99.90
2495;DHT22;1258;48.336;14.322;2024-01-30T01:02:27;-3.20;99.90
2495;DHT22;1258;48.336;14.322;2024-01-30T01:04:54;-3.10;99.90
2495;DHT22;1258;48.336;14.322;2024-01-30T01:07:21;-3.10;99.90
2495;DHT22;1258;48.336;14.322;2024-01-30T01:09:48;-3.10;99.90
2495;DHT22;1258;48.336;14.322;2024-01-30T01:12:15;-3.20;99.90
2495;DHT22;1258;48.336;14.322;2024-01-30T01:14:41;-3.20;99.90
2495;DHT22;1258;48.336;14.322;2024-01-30T01:17:08;-3.20;99.90
2495;DHT22;1258;48.336;14.322;2024-01-30T01:19:37;-3.20;99.90
2495;DHT22;1258;48.336;14.322;2024-01-30T01:22:03;-3.20;99.90
2495;DHT22;1258;48.336;14.322;2024-01-30T01:24:31;-3.20;99.90
2495;DHT22;1258;48.336;14.322;2024-01-30T01:26:58;-3.20;99.90
2495;DHT22;1258;48.336;14.322;2024-01-30T01:29:25;-3.20;99.90
2495;DHT22;1258;48.336;14.322;2024-01-30T01:31:54;-3.20;99.90
2495;DHT22;1258;48.336;14.322;2024-01-30T01:34:21;-3.10;99.90
2495;DHT22;1258;48.336;14.322;2024-01-30T01:36:50;-3.10;99.90
2495;DHT22;1258;48.336;14.322;2024-01-30T01:39:21;-3.10;99.90
2495;DHT22;1258;48.336;14.322;2024-01-30T01:41:48;-3.10;99.90
2495;DHT22;1258;48.336;14.322;2024-01-30T01:44:15;-3.10;99.90
2495;DHT22;1258;48.336;14.322;2024-01-30T01:46:42;-3.10;99.90
2495;DHT22;1258;48.336;14.322;2024-01-30T01:49:09;-3.10;99.90
2495;DHT22;1258;48.336;14.322;2024-01-30T01:51:36;-3.10;99.90
2495;DHT22;1258;48.336;14.322;2024-01-30T01:54:08;-3.10;99.90
2495;DHT22;1258;48.336;14.322;2024-01-30T01:56:35;-3.10;99.90
2495;DHT22;1258;48.336;14.322;2024-01-30T01:59:05;-3.10;99.90
2495;DHT22;1258;48.336;14.322;2024-01-30T02:01:33;-3.10;99.90
2495;DHT22;1258;48.336;14.322;2024-01-30T02:03:59;-3.10;99.90
2495;DHT22;1258;48.336;14.322;2024-01-30T02:06:26;-3.10;99.90
2495;DHT22;1258;48.336;14.322;2024-01-30T02:08:53;-3.20;99.90
2495;DHT22;1258;48.336;14.322;2024-01-30T02:11:22;-3.10;99.90
2495;DHT22;1258;48.336;14.322;2024-01-30T02:13:50;-3.10;99.90
2495;DHT22;1258;48.336;14.322;2024-01-30T02:16:16;-3.10;99.90
2495;DHT22;1258;48.336;14.322;2024-01-30T02:18:43;-3.10;99.90
2495;DHT22;1258;48.336;14.322;2024-01-30T02:21:15;-3.20;99.90
2495;DHT22;1258;48.336;14.322;2024-01-30T02:23:43;-3.20;99.90
2495;DHT22;1258;48.336;14.322;2024-01-30T02:26:11;-3.30;99.90
2495;DHT22;1258;48.336;14.322;2024-01-30T02:28:38;-3.30;99.90
2495;DHT22;1258;48.336;14.322;2024-01-30T02:31:05;-3.40;99.90
2495;DHT22;1258;48.336;14.322;2024-01-30T02:33:32;-3.40;99.90
2495;DHT22;1258;48.336;14.322;2024-01-30T02:35:59;-3.40;99.90
2495;DHT22;1258;48.336;14.322;2024-01-30T02:38:28;-3.30;99.90
2495;DHT22;1258;48.336;14.322;2024-01-30T02:40:55;-3.30;99.90
2495;DHT22;1258;48.336;14.322;2024-01-30T02:43:22;-3.30;99.90
2495;DHT22;1258;48.336;14.322;2024-01-30T02:45:49;-3.30;99.90
2495;DHT22;1258;48.336;14.322;2024-01-30T02:48:16;-3.30;99.90
2495;DHT22;1258;48.336;14.322;2024-01-30T02:50:43;-3.30;99.90
2495;DHT22;1258;48.336;14.322;2024-01-30T02:53:11;-3.30;99.90
2495;DHT22;1258;48.336;14.322;2024-01-30T02:55:39;-3.30;99.90
2495;DHT22;1258;48.336;14.322;2024-01-30T02:58:06;-3.30;99.90
2495;DHT22;1258;48.336;14.322;2024-01-30T03:00:33;-3.30;99.90
2495;DHT22;1258;48.336;14.322;2024-01-30T03:03:00;-3.40;99.90
2495;DHT22;1258;48.336;14.322;2024-01-30T03:05:27;-3.30;99.90
2495;DHT22;1258;48.336;14.322;2024-01-30T03:07:54;-3.40;99.90
2495;DHT22;1258;48.336;14.322;2024-01-30T03:10:21;-3.40;99.90
2495;DHT22;1258;48.336;14.322;2024-01-30T03:12:49;-3.40;99.90
2495;DHT22;1258;48.336;14.322;2024-01-30T03:15:16;-3.40;99.90
2495;DHT22;1258;48.336;14.322;2024-01-30T03:17:43;-3.50;99.90
2495;DHT22;1258;48.336;14.322;2024-01-30T03:20:11;-3.50;99.90
2495;DHT22;1258;48.336;14.322;2024-01-30T03:22:38;-3.60;99.90
2495;DHT22;1258;48.336;14.322;2024-01-30T03:25:05;-3.60;99.90
2495;DHT22;1258;48.336;14.322;2024-01-30T03:27:32;-3.60;99.90
2495;DHT22;1258;48.336;14.322;2024-01-30T03:30:00;-3.70;99.90
2495;DHT22;1258;48.336;14.322;2024-01-30T03:32:27;-3.70;99.90
2495;DHT22;1258;48.336;14.322;2024-01-30T03:51:46;-4.00;99.90
2495;DHT22;1258;48.336;14.322;2024-01-30T03:54:14;-4.00;99.90
2495;DHT22;1258;48.336;14.322;2024-01-30T03:56:41;-4.00;99.90
2495;DHT22;1258;48.336;14.322;2024-01-30T03:59:08;-4.00;99.90
2495;DHT22;1258;48.336;14.322;2024-01-30T04:01:35;-4.10;99.90
2495;DHT22;1258;48.336;14.322;2024-01-30T04:04:01;-4.20;99.90
2495;DHT22;1258;48.336;14.322;2024-01-30T04:06:28;-4.20;99.90
2495;DHT22;1258;48.336;14.322;2024-01-30T04:08:57;-4.20;99.90
2495;DHT22;1258;48.336;14.322;2024-01-30T04:11:23;-4.10;99.90
2495;DHT22;1258;48.336;14.322;2024-01-30T04:13:50;-4.20;99.90
2495;DHT22;1258;48.336;14.322;2024-01-30T04:16:20;-4.20;99.90
2495;DHT22;1258;48.336;14.322;2024-01-30T04:18:48;-4.20;99.90
2495;DHT22;1258;48.336;14.322;2024-01-30T04:21:15;-4.10;99.90
2495;DHT22;1258;48.336;14.322;2024-01-30T04:23:42;-4.10;99.90
2495;DHT22;1258;48.336;14.322;2024-01-30T04:26:10;-4.10;99.90
2495;DHT22;1258;48.336;14.322;2024-01-30T04:28:37;-4.10;99.90
2495;DHT22;1258;48.336;14.322;2024-01-30T04:31:04;-4.10;99.90
2495;DHT22;1258;48.336;14.322;2024-01-30T04:33:31;-4.20;99.90
2495;DHT22;1258;48.336;14.322;2024-01-30T04:35:58;-4.40;99.90
2495;DHT22;1258;48.336;14.322;2024-01-30T04:38:24;-4.30;99.90
2495;DHT22;1258;48.336;14.322;2024-01-30T04:40:51;-4.40;99.90
2495;DHT22;1258;48.336;14.322;2024-01-30T04:43:20;-4.30;99.90
2495;DHT22;1258;48.336;14.322;2024-01-30T04:45:47;-4.30;99.90
2495;DHT22;1258;48.336;14.322;2024-01-30T04:48:14;-4.30;99.90
2495;DHT22;1258;48.336;14.322;2024-01-30T04:50:41;-4.30;99.90
2495;DHT22;1258;48.336;14.322;2024-01-30T04:53:07;-4.40;99.90
2495;DHT22;1258;48.336;14.322;2024-01-30T04:55:35;-4.30;99.90
2495;DHT22;1258;48.336;14.322;2024-01-30T04:58:02;-4.30;99.90
2495;DHT22;1258;48.336;14.322;2024-01-30T05:00:30;-4.30;99.90
2495;DHT22;1258;48.336;14.322;2024-01-30T05:02:57;-4.30;99.90
2495;DHT22;1258;48.336;14.322;2024-01-30T05:05:24;-4.30;99.90
2495;DHT22;1258;48.336;14.322;2024-01-30T05:07:51;-4.30;99.90
2495;DHT22;1258;48.336;14.322;2024-01-30T05:10:18;-4.20;99.90
2495;DHT22;1258;48.336;14.322;2024-01-30T05:12:45;-4.20;99.90
2495;DHT22;1258;48.336;14.322;2024-01-30T05:15:12;-4.10;99.90
2495;DHT22;1258;48.336;14.322;2024-01-30T05:17:40;-4.10;99.90
2495;DHT22;1258;48.336;14.322;2024-01-30T05:20:08;-4.10;99.90
2495;DHT22;1258;48.336;14.322;2024-01-30T05:22:36;-4.10;99.90
2495;DHT22;1258;48.336;14.322;2024-01-30T05:25:04;-4.10;99.90
2495;DHT22;1258;48.336;14.322;2024-01-30T05:27:31;-4.00;99.90
2495;DHT22;1258;48.336;14.322;2024-01-30T05:29:58;-4.00;99.90
2495;DHT22;1258;48.336;14.322;2024-01-30T05:32:24;-4.00;99.90
2495;DHT22;1258;48.336;14.322;2024-01-30T05:34:53;-3.90;99.90
2495;DHT22;1258;48.336;14.322;2024-01-30T05:37:20;-3.90;99.90
2495;DHT22;1258;48.336;14.322;2024-01-30T05:39:46;-3.90;99.90
2495;DHT22;1258;48.336;14.322;2024-01-30T05:42:13;-3.90;99.90
2495;DHT22;1258;48.336;14.322;2024-01-30T05:44:42;-3.90;99.90
2495;DHT22;1258;48.336;14.322;2024-01-30T05:47:09;-4.00;99.90
2495;DHT22;1258;48.336;14.322;2024-01-30T05:49:36;-4.10;99.90
2495;DHT22;1258;48.336;14.322;2024-01-30T05:52:06;-4.00;99.90
2495;DHT22;1258;48.336;14.322;2024-01-30T05:54:33;-4.10;99.90
2495;DHT22;1258;48.336;14.322;2024-01-30T05:57:00;-4.00;99.90
2495;DHT22;1258;48.336;14.322;2024-01-30T05:59:26;-4.00;99.90
2495;DHT22;1258;48.336;14.322;2024-01-30T06:01:53;-4.00;99.90
2495;DHT22;1258;48.336;14.322;2024-01-30T06:04:20;-4.00;99.90
2495;DHT22;1258;48.336;14.322;2024-01-30T06:06:47;-4.00;99.90
2495;DHT22;1258;48.336;14.322;2024-01-30T06:09:15;-4.00;99.90
2495;DHT22;1258;48.336;14.322;2024-01-30T06:11:42;-4.00;99.90
2495;DHT22;1258;48.336;14.322;2024-01-30T06:14:09;-4.00;99.90
2495;DHT22;1258;48.336;14.322;2024-01-30T06:16:36;-4.00;99.90
2495;DHT22;1258;48.336;14.322;2024-01-30T06:19:03;-4.00;99.90
2495;DHT22;1258;48.336;14.322;2024-01-30T06:21:30;-4.00;99.90
2495;DHT22;1258;48.336;14.322;2024-01-30T06:23:57;-4.00;99.90
2495;DHT22;1258;48.336;14.322;2024-01-30T06:26:26;-4.10;99.90
2495;DHT22;1258;48.336;14.322;2024-01-30T06:28:52;-4.10;99.90
2495;DHT22;1258;48.336;14.322;2024-01-30T06:31:19;-4.10;99.90
2495;DHT22;1258;48.336;14.322;2024-01-30T06:33:46;-4.10;99.90
2495;DHT22;1258;48.336;14.322;2024-01-30T06:36:13;-4.20;99.90
2495;DHT22;1258;48.336;14.322;2024-01-30T06:38:41;-4.20;99.90
2495;DHT22;1258;48.336;14.322;2024-01-30T06:41:08;-4.20;99.90
2495;DHT22;1258;48.336;14.322;2024-01-30T06:43:36;-4.20;99.90
2495;DHT22;1258;48.336;14.322;2024-01-30T06:46:03;-4.20;99.90
2495;DHT22;1258;48.336;14.322;2024-01-30T06:48:30;-4.20;99.90
2495;DHT22;1258;48.336;14.322;2024-01-30T06:50:57;-4.20;99.90
2495;DHT22;1258;48.336;14.322;2024-01-30T06:53:24;-4.20;99.90
2495;DHT22;1258;48.336;14.322;2024-01-30T06:55:52;-4.20;99.90
2495;DHT22;1258;48.336;14.322;2024-01-30T06:58:19;-4.20;99.90
2495;DHT22;1258;48.336;14.322;2024-01-30T07:00:47;-4.10;99.90
2495;DHT22;1258;48.336;14.322;2024-01-30T07:03:14;-4.20;99.90
2495;DHT22;1258;48.336;14.322;2024-01-30T07:05:41;-4.20;99.90
2495;DHT22;1258;48.336;14.322;2024-01-30T07:08:08;-4.20;99.90
2495;DHT22;1258;48.336;14.322;2024-01-30T07:10:35;-4.20;99.90
2495;DHT22;1258;48.336;14.322;2024-01-30T07:13:02;-4.20;99.90
2495;DHT22;1258;48.336;14.322;2024-01-30T07:15:30;-4.10;99.90
2495;DHT22;1258;48.336;14.322;2024-01-30T07:17:58;-4.10;99.90
2495;DHT22;1258;48.336;14.322;2024-01-30T07:20:25;-4.10;99.90
2495;DHT22;1258;48.336;14.322;2024-01-30T07:22:52;-4.10;99.90
2495;DHT22;1258;48.336;14.322;2024-01-30T07:25:19;-4.10;99.90
2495;DHT22;1258;48.336;14.322;2024-01-30T07:27:47;-4.10;99.90
2495;DHT22;1258;48.336;14.322;2024-01-30T07:30:14;-4.00;99.90
2495;DHT22;1258;48.336;14.322;2024-01-30T07:32:42;-4.00;99.90
2495;DHT22;1258;48.336;14.322;2024-01-30T07:35:10;-3.90;99.90
2495;DHT22;1258;48.336;14.322;2024-01-30T07:37:37;-3.90;99.90
2495;DHT22;1258;48.336;14.322;2024-01-30T07:40:05;-3.90;99.90
2495;DHT22;1258;48.336;14.322;2024-01-30T07:42:32;-3.90;99.90
2495;DHT22;1258;48.336;14.322;2024-01-30T07:44:59;-3.90;99.90
2495;DHT22;1258;48.336;14.322;2024-01-30T07:47:26;-4.00;99.90
2495;DHT22;1258;48.336;14.322;2024-01-30T07:49:53;-4.00;99.90
2495;DHT22;1258;48.336;14.322;2024-01-30T07:52:21;-3.90;99.90
2495;DHT22;1258;48.336;14.322;2024-01-30T07:54:48;-3.90;99.90
2495;DHT22;1258;48.336;14.322;2024-01-30T07:57:15;-3.80;99.90
2495;DHT22;1258;48.336;14.322;2024-01-30T07:59:42;-3.80;99.90
2495;DHT22;1258;48.336;14.322;2024-01-30T08:02:11;-3.80;99.90
2495;DHT22;1258;48.336;14.322;2024-01-30T08:04:38;-3.80;99.90
2495;DHT22;1258;48.336;14.322;2024-01-30T08:07:05;-3.90;99.90
2495;DHT22;1258;48.336;14.322;2024-01-30T08:09:34;-3.80;99.90
2495;DHT22;1258;48.336;14.322;2024-01-30T08:12:00;-3.90;99.90
2495;DHT22;1258;48.336;14.322;2024-01-30T08:14:27;-3.90;99.90
2495;DHT22;1258;48.336;14.322;2024-01-30T08:16:54;-3.80;99.90
2495;DHT22;1258;48.336;14.322;2024-01-30T08:19:21;-3.80;99.90
2495;DHT22;1258;48.336;14.322;2024-01-30T08:21:48;-3.80;99.90
2495;DHT22;1258;48.336;14.322;2024-01-30T08:24:15;-3.70;99.90
2495;DHT22;1258;48.336;14.322;2024-01-30T08:26:43;-3.60;99.90
2495;DHT22;1258;48.336;14.322;2024-01-30T08:29:10;-3.50;99.90
2495;DHT22;1258;48.336;14.322;2024-01-30T08:31:37;-3.50;99.90
2495;DHT22;1258;48.336;14.322;2024-01-30T08:34:04;-3.40;99.90
2495;DHT22;1258;48.336;14.322;2024-01-30T08:36:31;-3.40;99.90
2495;DHT22;1258;48.336;14.322;2024-01-30T08:38:58;-3.40;99.90
2495;DHT22;1258;48.336;14.322;2024-01-30T08:41:25;-3.30;99.90
2495;DHT22;1258;48.336;14.322;2024-01-30T08:43:53;-3.30;99.90
2495;DHT22;1258;48.336;14.322;2024-01-30T08:46:20;-3.30;99.90
2495;DHT22;1258;48.336;14.322;2024-01-30T08:48:47;-3.30;99.90
2495;DHT22;1258;48.336;14.322;2024-01-30T08:51:14;-3.30;99.90
2495;DHT22;1258;48.336;14.322;2024-01-30T08:53:41;-3.40;99.90
2495;DHT22;1258;48.336;14.322;2024-01-30T08:56:08;-3.30;99.90
2495;DHT22;1258;48.336;14.322;2024-01-30T08:58:35;-3.20;99.90
2495;DHT22;1258;48.336;14.322;2024-01-30T09:01:04;-3.20;99.90
2495;DHT22;1258;48.336;14.322;2024-01-30T09:03:31;-3.20;99.90
2495;DHT22;1258;48.336;14.322;2024-01-30T09:05:58;-3.20;99.90
2495;DHT22;1258;48.336;14.322;2024-01-30T09:08:25;-3.10;99.90
2495;DHT22;1258;48.336;14.322;2024-01-30T09:10:51;-3.10;99.90
2495;DHT22;1258;48.336;14.322;2024-01-30T09:13:18;-3.10;99.90
2495;DHT22;1258;48.336;14.322;2024-01-30T09:15:45;-3.00;99.90
2495;DHT22;1258;48.336;14.322;2024-01-30T09:18:13;-2.90;99.90
2495;DHT22;1258;48.336;14.322;2024-01-30T09:20:40;-2.90;99.90
2495;DHT22;1258;48.336;14.322;2024-01-30T09:23:07;-2.80;99.90
2495;DHT22;1258;48.336;14.322;2024-01-30T09:25:34;-2.90;99.90
2495;DHT22;1258;48.336;14.322;2024-01-30T09:28:01;-2.90;99.90
2495;DHT22;1258;48.336;14.322;2024-01-30T09:30:28;-2.90;99.90
2495;DHT22;1258;48.336;14.322;2024-01-30T09:32:55;-3.00;99.90
2495;DHT22;1258;48.336;14.322;2024-01-30T09:35:23;-3.00;99.90
2495;DHT22;1258;48.336;14.322;2024-01-30T09:37:50;-3.10;99.90
2495;DHT22;1258;48.336;14.322;2024-01-30T09:40:18;-2.80;99.90
2495;DHT22;1258;48.336;14.322;2024-01-30T09:42:47;-3.00;99.90
2495;DHT22;1258;48.336;14.322;2024-01-30T09:45:16;-2.90;99.90
2495;DHT22;1258;48.336;14.322;2024-01-30T09:47:44;-2.90;99.90
2495;DHT22;1258;48.336;14.322;2024-01-30T09:50:12;-3.10;99.90
2495;DHT22;1258;48.336;14.322;2024-01-30T09:52:42;-3.20;99.90
2495;DHT22;1258;48.336;14.322;2024-01-30T09:55:09;-3.20;99.90
2495;DHT22;1258;48.336;14.322;2024-01-30T09:57:36;-3.10;99.90
2495;DHT22;1258;48.336;14.322;2024-01-30T10:00:04;-3.50;99.90
2495;DHT22;1258;48.336;14.322;2024-01-30T10:02:33;-3.80;99.90
2495;DHT22;1258;48.336;14.322;2024-01-30T10:05:00;-3.80;99.90
2495;DHT22;1258;48.336;14.322;2024-01-30T10:07:27;-3.90;99.90
2495;DHT22;1258;48.336;14.322;2024-01-30T10:09:57;-3.60;99.90
2495;DHT22;1258;48.336;14.322;2024-01-30T10:12:25;-3.70;99.90
2495;DHT22;1258;48.336;14.322;2024-01-30T10:14:52;-3.80;99.90
2495;DHT22;1258;48.336;14.322;2024-01-30T10:17:19;-4.00;99.90
2495;DHT22;1258;48.336;14.322;2024-01-30T10:19:47;-3.90;99.90
2495;DHT22;1258;48.336;14.322;2024-01-30T10:22:14;-3.90;99.90
2495;DHT22;1258;48.336;14.322;2024-01-30T10:24:41;-3.70;99.90
2495;DHT22;1258;48.336;14.322;2024-01-30T10:27:09;-3.60;99.90
2495;DHT22;1258;48.336;14.322;2024-01-30T10:29:37;-3.90;99.90
2495;DHT22;1258;48.336;14.322;2024-01-30T10:32:05;-3.60;99.90
2495;DHT22;1258;48.336;14.322;2024-01-30T10:34:32;-3.30;99.90
2495;DHT22;1258;48.336;14.322;2024-01-30T10:37:07;-3.10;99.90
2495;DHT22;1258;48.336;14.322;2024-01-30T10:39:38;-3.00;99.90
2495;DHT22;1258;48.336;14.322;2024-01-30T10:42:07;-3.60;99.90
2495;DHT22;1258;48.336;14.322;2024-01-30T10:44:48;-3.30;99.90
2495;DHT22;1258;48.336;14.322;2024-01-30T10:47:26;-3.40;99.90
2495;DHT22;1258;48.336;14.322;2024-01-30T10:49:54;-3.40;99.90
2495;DHT22;1258;48.336;14.322;2024-01-30T10:52:23;-3.50;99.90
2495;DHT22;1258;48.336;14.322;2024-01-30T10:54:51;-3.40;99.90
2495;DHT22;1258;48.336;14.322;2024-01-30T10:57:18;-3.70;99.90
2495;DHT22;1258;48.336;14.322;2024-01-30T10:59:47;-3.80;99.90
2495;DHT22;1258;48.336;14.322;2024-01-30T11:02:14;-3.30;99.90
2495;DHT22;1258;48.336;14.322;2024-01-30T11:04:41;-3.20;99.90
2495;DHT22;1258;48.336;14.322;2024-01-30T11:07:14;-3.30;99.90
2495;DHT22;1258;48.336;14.322;2024-01-30T11:09:48;-3.40;99.90
2495;DHT22;1258;48.336;14.322;2024-01-30T11:12:16;-3.20;99.90
2495;DHT22;1258;48.336;14.322;2024-01-30T11:14:49;-3.10;99.90
2495;DHT22;1258;48.336;14.322;2024-01-30T11:17:16;-3.10;99.90
2495;DHT22;1258;48.336;14.322;2024-01-30T11:19:43;-3.00;99.90
2495;DHT22;1258;48.336;14.322;2024-01-30T11:22:11;-3.20;99.90
2495;DHT22;1258;48.336;14.322;2024-01-30T11:24:39;-3.00;99.90
2495;DHT22;1258;48.336;14.322;2024-01-30T11:27:09;-3.10;99.90
2495;DHT22;1258;48.336;14.322;2024-01-30T11:29:36;-3.10;99.90
2495;DHT22;1258;48.336;14.322;2024-01-30T11:32:05;-3.20;99.90
2495;DHT22;1258;48.336;14.322;2024-01-30T11:34:33;-2.80;99.90
2495;DHT22;1258;48.336;14.322;2024-01-30T11:37:03;-2.70;99.90
2495;DHT22;1258;48.336;14.322;2024-01-30T11:39:32;-2.90;99.90
2495;DHT22;1258;48.336;14.322;2024-01-30T11:41:59;-2.90;99.90
2495;DHT22;1258;48.336;14.322;2024-01-30T11:44:26;-2.80;99.90
2495;DHT22;1258;48.336;14.322;2024-01-30T11:46:53;-3.10;99.90
2495;DHT22;1258;48.336;14.322;2024-01-30T11:49:22;-3.10;99.90
2495;DHT22;1258;48.336;14.322;2024-01-30T11:51:50;-3.00;99.90
2495;DHT22;1258;48.336;14.322;2024-01-30T11:54:17;-3.10;99.90
2495;DHT22;1258;48.336;14.322;2024-01-30T11:56:47;-2.90;99.90
2495;DHT22;1258;48.336;14.322;2024-01-30T11:59:14;-2.80;99.90
2495;DHT22;1258;48.336;14.322;2024-01-30T12:01:41;-2.80;99.90
2495;DHT22;1258;48.336;14.322;2024-01-30T12:04:08;-2.50;99.90
2495;DHT22;1258;48.336;14.322;2024-01-30T12:06:37;-2.70;99.90
2495;DHT22;1258;48.336;14.322;2024-01-30T12:09:04;-2.90;99.90
2495;DHT22;1258;48.336;14.322;2024-01-30T12:11:32;-3.00;99.90
2495;DHT22;1258;48.336;14.322;2024-01-30T12:13:59;-3.20;99.90
2495;DHT22;1258;48.336;14.322;2024-01-30T12:16:26;-2.90;99.90
2495;DHT22;1258;48.336;14.322;2024-01-30T12:18:59;-3.00;99.90
2495;DHT22;1258;48.336;14.322;2024-01-30T12:21:28;-2.80;99.90
2495;DHT22;1258;48.336;14.322;2024-01-30T12:23:56;-2.80;99.90
2495;DHT22;1258;48.336;14.322;2024-01-30T12:26:23;-2.80;99.90
2495;DHT22;1258;48.336;14.322;2024-01-30T12:28:54;-3.00;99.90
2495;DHT22;1258;48.336;14.322;2024-01-30T12:31:25;-2.70;99.90
2495;DHT22;1258;48.336;14.322;2024-01-30T12:33:53;-2.80;99.90
2495;DHT22;1258;48.336;14.322;2024-01-30T12:36:21;-2.50;99.90
2495;DHT22;1258;48.336;14.322;2024-01-30T12:38:48;-2.90;99.90
2495;DHT22;1258;48.336;14.322;2024-01-30T12:41:16;-3.10;99.90
2495;DHT22;1258;48.336;14.322;2024-01-30T12:43:43;-3.20;99.90
2495;DHT22;1258;48.336;14.322;2024-01-30T12:46:10;-3.10;99.90
2495;DHT22;1258;48.336;14.322;2024-01-30T12:48:37;-2.70;99.90
2495;DHT22;1258;48.336;14.322;2024-01-30T12:51:04;-2.80;99.90
2495;DHT22;1258;48.336;14.322;2024-01-30T12:53:31;-2.80;99.90
2495;DHT22;1258;48.336;14.322;2024-01-30T12:55:58;-2.70;99.90
2495;DHT22;1258;48.336;14.322;2024-01-30T12:58:26;-2.70;99.90
2495;DHT22;1258;48.336;14.322;2024-01-30T13:00:53;-2.80;99.90
2495;DHT22;1258;48.336;14.322;2024-01-30T13:03:20;-2.70;99.90
2495;DHT22;1258;48.336;14.322;2024-01-30T13:05:48;-2.50;99.90
2495;DHT22;1258;48.336;14.322;2024-01-30T13:08:15;-2.70;99.90
2495;DHT22;1258;48.336;14.322;2024-01-30T13:10:42;-2.30;99.90
2495;DHT22;1258;48.336;14.322;2024-01-30T13:13:09;-2.50;99.90
2495;DHT22;1258;48.336;14.322;2024-01-30T13:15:37;-2.30;99.90
2495;DHT22;1258;48.336;14.322;2024-01-30T13:18:04;-2.30;99.90
2495;DHT22;1258;48.336;14.322;2024-01-30T13:20:31;-2.30;99.90
2495;DHT22;1258;48.336;14.322;2024-01-30T13:22:58;-2.50;99.90
2495;DHT22;1258;48.336;14.322;2024-01-30T13:25:25;-2.40;99.90
2495;DHT22;1258;48.336;14.322;2024-01-30T13:27:52;-2.30;99.90
2495;DHT22;1258;48.336;14.322;2024-01-30T13:30:18;-2.70;99.90
2495;DHT22;1258;48.336;14.322;2024-01-30T13:32:46;-2.80;99.90
2495;DHT22;1258;48.336;14.322;2024-01-30T13:35:13;-2.90;99.90
2495;DHT22;1258;48.336;14.322;2024-01-30T13:37:40;-2.40;99.90
2495;DHT22;1258;48.336;14.322;2024-01-30T13:40:09;-2.20;99.90
2495;DHT22;1258;48.336;14.322;2024-01-30T13:42:36;-2.60;99.90
2495;DHT22;1258;48.336;14.322;2024-01-30T13:45:03;-2.60;99.90
2495;DHT22;1258;48.336;14.322;2024-01-30T13:47:30;-2.40;99.90
2495;DHT22;1258;48.336;14.322;2024-01-30T13:49:58;-2.70;99.90
2495;DHT22;1258;48.336;14.322;2024-01-30T13:52:25;-2.90;99.90
2495;DHT22;1258;48.336;14.322;2024-01-30T13:54:52;-2.70;99.90
2495;DHT22;1258;48.336;14.322;2024-01-30T13:57:19;-2.80;99.90
2495;DHT22;1258;48.336;14.322;2024-01-30T13:59:46;-2.50;99.90
2495;DHT22;1258;48.336;14.322;2024-01-30T14:02:13;-2.40;99.90
2495;DHT22;1258;48.336;14.322;2024-01-30T14:04:40;-2.30;99.90
2495;DHT22;1258;48.336;14.322;2024-01-30T14:07:08;-2.20;99.90
2495;DHT22;1258;48.336;14.322;2024-01-30T14:09:35;-2.30;99.90
2495;DHT22;1258;48.336;14.322;2024-01-30T14:12:02;-2.10;99.90
2495;DHT22;1258;48.336;14.322;2024-01-30T14:14:29;-2.60;99.90
2495;DHT22;1258;48.336;14.322;2024-01-30T14:16:56;-2.70;99.90
2495;DHT22;1258;48.336;14.322;2024-01-30T14:19:23;-2.80;99.90
2495;DHT22;1258;48.336;14.322;2024-01-30T14:21:50;-3.10;99.90
2495;DHT22;1258;48.336;14.322;2024-01-30T14:24:18;-3.10;99.90
2495;DHT22;1258;48.336;14.322;2024-01-30T14:26:45;-2.80;99.90
2495;DHT22;1258;48.336;14.322;2024-01-30T14:29:12;-2.70;99.90
2495;DHT22;1258;48.336;14.322;2024-01-30T14:31:39;-2.90;99.90
2495;DHT22;1258;48.336;14.322;2024-01-30T14:34:06;-3.00;99.90
2495;DHT22;1258;48.336;14.322;2024-01-30T14:36:34;-3.20;99.90
2495;DHT22;1258;48.336;14.322;2024-01-30T14:39:01;-3.00;99.90
2495;DHT22;1258;48.336;14.322;2024-01-30T14:41:30;-3.00;99.90
2495;DHT22;1258;48.336;14.322;2024-01-30T14:43:56;-3.00;99.90
2495;DHT22;1258;48.336;14.322;2024-01-30T14:46:23;-3.40;99.90
2495;DHT22;1258;48.336;14.322;2024-01-30T14:48:52;-3.30;99.90
2495;DHT22;1258;48.336;14.322;2024-01-30T14:51:20;-3.70;99.90
2495;DHT22;1258;48.336;14.322;2024-01-30T14:53:46;-3.70;99.90
2495;DHT22;1258;48.336;14.322;2024-01-30T14:56:13;-3.80;99.90
2495;DHT22;1258;48.336;14.322;2024-01-30T14:58:42;-3.70;99.90
2495;DHT22;1258;48.336;14.322;2024-01-30T15:01:09;-3.80;99.90
2495;DHT22;1258;48.336;14.322;2024-01-30T15:03:36;-3.60;99.90
2495;DHT22;1258;48.336;14.322;2024-01-30T15:06:05;-3.90;99.90
2495;DHT22;1258;48.336;14.322;2024-01-30T15:08:32;-3.90;99.90
2495;DHT22;1258;48.336;14.322;2024-01-30T15:11:16;-4.00;99.90
2495;DHT22;1258;48.336;14.322;2024-01-30T15:17:06;-3.80;99.90
2495;DHT22;1258;48.336;14.322;2024-01-30T15:22:18;-4.20;99.90
2495;DHT22;1258;48.336;14.322;2024-01-30T15:24:45;-4.00;99.90
2495;DHT22;1258;48.336;14.322;2024-01-30T15:27:12;-4.30;99.90
2495;DHT22;1258;48.336;14.322;2024-01-30T15:29:40;-4.40;99.90
2495;DHT22;1258;48.336;14.322;2024-01-30T15:32:07;-4.40;99.90
2495;DHT22;1258;48.336;14.322;2024-01-30T15:34:34;-4.40;99.90
2495;DHT22;1258;48.336;14.322;2024-01-30T15:37:01;-4.40;99.90
2495;DHT22;1258;48.336;14.322;2024-01-30T15:39:28;-4.20;99.90
2495;DHT22;1258;48.336;14.322;2024-01-30T15:41:55;-4.00;99.90
2495;DHT22;1258;48.336;14.322;2024-01-30T15:44:23;-3.70;99.90
2495;DHT22;1258;48.336;14.322;2024-01-30T15:46:52;-3.50;99.90
2495;DHT22;1258;48.336;14.322;2024-01-30T15:49:19;-3.40;99.90
2495;DHT22;1258;48.336;14.322;2024-01-30T15:51:46;-3.40;99.90
2495;DHT22;1258;48.336;14.322;2024-01-30T15:54:13;-3.20;99.90
2495;DHT22;1258;48.336;14.322;2024-01-30T15:56:40;-3.40;99.90
2495;DHT22;1258;48.336;14.322;2024-01-30T15:59:07;-3.60;99.90
2495;DHT22;1258;48.336;14.322;2024-01-30T16:01:34;-3.60;99.90
2495;DHT22;1258;48.336;14.322;2024-01-30T16:04:02;-3.80;99.90
2495;DHT22;1258;48.336;14.322;2024-01-30T16:06:29;-3.50;99.90
2495;DHT22;1258;48.336;14.322;2024-01-30T16:08:56;-3.50;99.90